Moroni/Hahaya, Comoros
Current Conditions -  °F | °C
As of 1:00 PM on Saturday 25 Oct 2014 (Local Time) from FMCH Reporting Station
Scattered Clouds Scattered Clouds  
Wind Chill: 91°   Ceiling: Unl
Heat Index: 95°   Visibility: 6mi
Dew Point: 68°   Wind: 10mph
Humidity: 46%   Direction: 110°ESE
Pressure: 29.91"   Gusts: NA
Location:  11.53°S, 43.27°E
Report Text: FMCH 251000Z 11009KT 070V180 9999 SCT022 33/20 Q1013 NOSIG
Loading
Personal Weather Stations






























Interactive Weather Map
Tropical Storm Tracking
New forecast layout! Learn more

10-Day Weather Forecast

Advertisements
Track Severe Weather on mobile